Time;durP1;ratioP1;P1;durP2;ratioP2;P2;SDS_P1;SDS_P2;PMS_P1;PMS_P2;Temp;Humidity;BMP_temperature;BMP_pressure;BME280_temperature;BME280_humidity;BME280_pressure;Samples;Min_cycle;Max_cycle;Signal;HPM_P1;HPM_P2
2021/06/18 00:01:57;;;;;;;6.05;3.13;;;;;;;18.92;40.07;100845.00;5093073;28;20479;-58
2021/06/18 00:04:23;;;;;;;8.82;3.20;;;;;;;18.90;39.94;100842.41;5092999;28;20043;-58
2021/06/18 00:06:48;;;;;;;8.60;3.58;;;;;;;18.88;39.98;100855.28;5092704;28;20040;-59
2021/06/18 00:09:14;;;;;;;8.75;3.55;;;;;;;18.83;40.06;100856.78;5093050;28;20040;-58
2021/06/18 00:11:40;;;;;;;8.55;4.55;;;;;;;18.78;40.25;100860.78;5093107;28;20147;-59
2021/06/18 00:14:06;;;;;;;30.55;13.05;;;;;;;18.30;40.22;100786.84;5092930;28;20040;-60
2021/06/18 00:16:33;;;;;;;25.48;10.88;;;;;;;18.75;40.66;100861.09;5092797;28;20360;-57
2021/06/18 00:18:59;;;;;;;13.43;6.80;;;;;;;18.71;41.08;100865.13;5092857;28;20043;-58
2021/06/18 00:21:24;;;;;;;14.10;6.90;;;;;;;18.64;41.34;100869.44;5093420;28;20384;-58
2021/06/18 00:23:50;;;;;;;11.40;5.55;;;;;;;18.61;41.41;100867.03;5092377;28;20035;-58
2021/06/18 00:26:15;;;;;;;15.68;6.35;;;;;;;18.55;41.55;100875.75;5092358;28;20038;-58
2021/06/18 00:28:42;;;;;;;18.38;8.52;;;;;;;18.56;41.63;100874.75;5092661;28;20071;-59
2021/06/18 00:31:10;;;;;;;23.75;8.82;;;;;;;18.53;42.02;100873.22;5092857;28;20085;-59
2021/06/18 00:33:35;;;;;;;24.92;10.63;;;;;;;18.50;41.98;100879.78;5092231;28;20454;-57
2021/06/18 00:36:01;;;;;;;24.83;11.57;;;;;;;18.50;42.11;100889.78;5092214;28;20024;-57
2021/06/18 00:38:26;;;;;;;34.88;14.15;;;;;;;18.47;42.04;100880.09;5092282;28;20491;-58
2021/06/18 00:40:52;;;;;;;42.60;19.80;;;;;;;18.48;41.82;100883.66;5096353;28;20039;-59
2021/06/18 00:43:18;;;;;;;39.20;16.92;;;;;;;18.43;41.85;100875.97;5112594;28;20034;-59
2021/06/18 00:45:44;;;;;;;36.58;16.05;;;;;;;18.44;41.76;100890.34;5111260;28;20032;-57
2021/06/18 00:48:10;;;;;;;33.38;14.73;;;;;;;18.06;42.17;100828.03;5112107;28;20039;-58
2021/06/18 00:50:35;;;;;;;37.67;16.75;;;;;;;18.40;42.26;100886.25;5111887;28;20036;-54
2021/06/18 00:53:01;;;;;;;35.55;14.23;;;;;;;18.40;42.59;100887.13;5112181;28;20039;-55
2021/06/18 00:55:27;;;;;;;29.02;13.50;;;;;;;18.39;42.82;100893.53;5112040;28;20035;-55
2021/06/18 00:57:53;;;;;;;35.38;14.10;;;;;;;18.20;42.78;100862.78;5111969;28;20036;-56
2021/06/18 01:00:20;;;;;;;35.28;15.27;;;;;;;18.13;42.52;100850.84;5112302;27;20089;-57
2021/06/18 01:02:45;;;;;;;32.63;14.82;;;;;;;18.34;42.78;100885.00;5112021;27;20390;-56
2021/06/18 01:05:14;;;;;;;31.45;14.95;;;;;;;18.18;43.84;100867.50;5112202;28;20098;-56
2021/06/18 01:07:43;;;;;;;35.53;15.00;;;;;;;18.37;43.27;100895.56;5112076;28;20035;-57
2021/06/18 01:10:23;;;;;;;41.03;14.95;;;;;;;18.41;44.01;100902.38;5111497;28;20131;-57
2021/06/18 01:13:02;;;;;;;31.90;14.73;;;;;;;18.36;43.97;100912.81;5112425;28;20143;-57
2021/06/18 01:15:40;;;;;;;35.60;14.57;;;;;;;18.37;44.40;100895.56;5111854;28;20050;-59
2021/06/18 01:18:12;;;;;;;34.20;15.88;;;;;;;18.31;44.62;100890.69;5111561;28;20049;-60
2021/06/18 01:20:53;;;;;;;38.60;15.95;;;;;;;18.40;43.98;100899.78;5112223;28;20561;-56
2021/06/18 01:23:44;;;;;;;33.75;14.93;;;;;;;18.46;43.45;100896.50;5111668;28;20035;-60
2021/06/18 01:26:22;;;;;;;32.75;15.95;;;;;;;18.50;43.22;100901.47;5111546;28;20082;-59
2021/06/18 01:28:49;;;;;;;37.67;16.90;;;;;;;18.50;42.99;100896.03;5112167;28;20070;-57
2021/06/18 01:31:20;;;;;;;44.17;17.88;;;;;;;18.55;43.08;100900.16;5111752;28;20024;-58
2021/06/18 01:33:50;;;;;;;33.35;15.73;;;;;;;18.62;43.12;100914.84;5111359;28;20119;-58
2021/06/18 01:36:16;;;;;;;34.30;16.05;;;;;;;18.61;43.22;100913.16;5111532;27;20058;-54
2021/06/18 01:38:45;;;;;;;35.38;15.77;;;;;;;18.63;43.70;100906.53;5111956;28;20028;-59
2021/06/18 01:41:15;;;;;;;40.17;15.85;;;;;;;18.65;44.02;100911.84;5111207;28;20054;-57
2021/06/18 01:43:44;;;;;;;33.90;14.68;;;;;;;18.69;44.26;100907.81;5111359;28;20088;-57
2021/06/18 01:46:13;;;;;;;30.85;14.57;;;;;;;18.69;43.87;100910.53;5111533;28;20039;-60
2021/06/18 01:48:41;;;;;;;34.95;14.65;;;;;;;18.74;43.75;100910.09;5111377;28;20035;-60
2021/06/18 01:51:07;;;;;;;29.27;11.98;;;;;;;18.74;43.63;100910.91;5111159;28;20047;-55
2021/06/18 01:53:35;;;;;;;32.58;13.13;;;;;;;18.68;43.52;100892.53;5111015;28;20031;-55
2021/06/18 01:56:02;;;;;;;29.02;12.45;;;;;;;18.81;43.57;100922.03;5112084;27;20036;-58
2021/06/18 01:58:29;;;;;;;33.40;14.50;;;;;;;18.71;43.74;100897.66;5111073;28;20042;-59
2021/06/18 02:00:58;;;;;;;27.48;12.48;;;;;;;18.88;43.55;100931.25;5110936;28;20089;-60
2021/06/18 02:03:29;;;;;;;29.75;13.95;;;;;;;18.92;44.82;100926.41;5110996;28;20087;-58
2021/06/18 02:05:57;;;;;;;27.75;13.10;;;;;;;18.87;43.85;100907.84;5110432;28;20047;-58
2021/06/18 02:08:24;;;;;;;29.67;12.23;;;;;;;19.04;43.51;100914.34;5110988;28;20033;-60
2021/06/18 02:10:51;;;;;;;30.13;11.77;;;;;;;19.11;43.70;100919.19;5110614;28;20046;-58
2021/06/18 02:13:19;;;;;;;25.38;10.02;;;;;;;19.20;43.32;100929.09;5110499;28;20043;-60
2021/06/18 02:15:47;;;;;;;22.20;9.45;;;;;;;19.32;42.82;100927.88;5111280;28;20036;-59
2021/06/18 02:18:17;;;;;;;20.90;9.57;;;;;;;19.48;42.42;100934.47;5110856;28;20070;-57
2021/06/18 02:20:45;;;;;;;19.08;8.80;;;;;;;19.76;42.22;100942.53;5110386;28;20042;-59
2021/06/18 02:23:11;;;;;;;21.25;9.50;;;;;;;20.03;41.95;100948.91;5110176;28;20035;-59
2021/06/18 02:25:38;;;;;;;17.77;9.35;;;;;;;20.28;41.24;100932.75;5110979;28;20031;-58
2021/06/18 02:28:06;;;;;;;21.40;9.27;;;;;;;20.61;40.40;100938.38;5111649;28;20114;-58
2021/06/18 02:30:32;;;;;;;19.55;9.18;;;;;;;20.91;39.87;100936.13;5110428;28;20103;-58
2021/06/18 02:32:59;;;;;;;20.30;8.65;;;;;;;21.27;39.34;100943.22;5110383;28;20533;-54
2021/06/18 02:35:25;;;;;;;16.30;8.30;;;;;;;21.66;38.48;100958.97;5110671;28;20401;-53
2021/06/18 02:37:51;;;;;;;18.48;8.95;;;;;;;22.12;37.77;100952.16;5110489;28;20038;-57
2021/06/18 02:40:17;;;;;;;17.95;8.77;;;;;;;22.57;37.19;100955.31;5110434;28;20027;-59
2021/06/18 02:42:42;;;;;;;16.60;8.68;;;;;;;22.91;36.04;100960.47;5109836;28;20126;-57
2021/06/18 02:45:09;;;;;;;18.02;8.27;;;;;;;23.21;35.06;100935.22;5109994;28;20184;-59
2021/06/18 02:47:54;;;;;;;18.23;8.27;;;;;;;23.53;34.21;100954.34;5110517;28;20048;-57
2021/06/18 02:50:38;;;;;;;16.58;7.63;;;;;;;23.62;33.68;100956.81;5110098;28;20035;-61
2021/06/18 02:53:14;;;;;;;13.05;6.20;;;;;;;23.71;33.60;100959.50;5110285;28;20039;-57
2021/06/18 02:55:57;;;;;;;20.83;8.13;;;;;;;23.88;33.74;100968.41;5108728;28;20080;-59
2021/06/18 02:58:25;;;;;;;17.73;8.95;;;;;;;24.14;33.42;100968.06;5109860;28;20072;-58
2021/06/18 03:00:53;;;;;;;18.92;8.55;;;;;;;24.60;33.03;100960.75;5110378;28;20070;-58
2021/06/18 03:03:24;;;;;;;18.10;8.77;;;;;;;25.15;32.56;100969.47;5109876;28;20289;-60
2021/06/18 03:05:53;;;;;;;20.65;9.75;;;;;;;25.67;31.75;100968.56;5109943;28;20035;-60
2021/06/18 03:08:21;;;;;;;19.98;8.75;;;;;;;26.06;30.79;100948.03;5110105;28;20546;-59
2021/06/18 03:10:49;;;;;;;15.38;8.73;;;;;;;26.63;29.67;100961.72;5108197;28;20024;-60
2021/06/18 03:13:26;;;;;;;18.15;8.60;;;;;;;27.03;29.52;100955.59;5109993;28;20039;-58
2021/06/18 03:15:52;;;;;;;15.48;7.40;;;;;;;27.23;28.55;100948.28;5109988;28;20048;-59
2021/06/18 03:18:21;;;;;;;9.27;4.95;;;;;;;27.53;27.09;100925.09;5114355;28;20141;-58
2021/06/18 03:20:51;;;;;;;11.82;5.88;;;;;;;28.19;26.51;100953.69;5116363;27;20036;-58
2021/06/18 03:23:19;;;;;;;11.05;4.68;;;;;;;28.57;25.43;100954.03;5116809;27;20144;-59
2021/06/18 03:25:46;;;;;;;9.55;4.55;;;;;;;28.91;24.42;100941.00;5115290;28;20043;-59
2021/06/18 03:28:13;;;;;;;10.40;3.92;;;;;;;29.28;24.09;100952.28;5116619;27;20035;-59
2021/06/18 03:30:39;;;;;;;9.88;4.70;;;;;;;29.64;23.57;100945.25;5116901;27;20558;-58
2021/06/18 03:33:06;;;;;;;8.15;4.30;;;;;;;29.94;22.86;100950.13;5117271;27;20034;-57
2021/06/18 03:35:33;;;;;;;10.20;4.55;;;;;;;30.28;22.68;100957.28;5116475;27;20502;-58
2021/06/18 03:38:00;;;;;;;10.30;4.93;;;;;;;30.55;22.10;100943.19;5116321;27;20051;-59
2021/06/18 03:40:26;;;;;;;9.20;5.20;;;;;;;30.99;21.57;100959.69;5116826;27;20122;-60
2021/06/18 03:42:53;;;;;;;12.10;4.63;;;;;;;31.36;21.07;100959.63;5116119;27;20045;-56
2021/06/18 03:45:21;;;;;;;10.25;5.10;;;;;;;31.65;20.52;100965.38;5116091;27;20063;-52
2021/06/18 03:47:48;;;;;;;6.22;4.00;;;;;;;31.87;20.52;100962.06;5114839;28;20031;-55
2021/06/18 03:50:21;;;;;;;7.35;3.90;;;;;;;32.19;19.71;100962.56;5116634;27;20143;-58
2021/06/18 03:52:47;;;;;;;8.35;3.53;;;;;;;32.50;19.59;100952.22;5116683;27;20119;-57
2021/06/18 03:55:13;;;;;;;8.07;3.80;;;;;;;32.80;18.71;100961.44;5116407;27;20122;-58
2021/06/18 03:57:49;;;;;;;7.60;4.22;;;;;;;32.67;18.83;100884.91;5116663;27;20035;-59
2021/06/18 04:00:16;;;;;;;7.03;3.55;;;;;;;33.25;18.24;100929.31;5116395;27;20118;-58
2021/06/18 04:02:42;;;;;;;11.40;3.65;;;;;;;33.96;17.58;100966.13;5116587;27;20492;-57
2021/06/18 04:05:12;;;;;;;5.43;3.35;;;;;;;34.38;17.14;100967.59;5116605;27;20035;-58
2021/06/18 04:07:42;;;;;;;8.35;3.78;;;;;;;34.90;16.27;100961.63;5116257;27;20498;-60
2021/06/18 04:10:09;;;;;;;7.70;3.28;;;;;;;35.53;16.27;100977.09;5117107;27;20494;-61
2021/06/18 04:12:36;;;;;;;5.80;2.97;;;;;;;35.91;15.68;100977.97;5116384;27;20051;-60
2021/06/18 04:15:02;;;;;;;6.25;3.38;;;;;;;36.33;15.06;100968.00;5116149;27;20047;-59
2021/06/18 04:17:28;;;;;;;5.22;2.78;;;;;;;36.84;14.71;100985.25;5115987;28;20395;-60
2021/06/18 04:19:54;;;;;;;6.43;2.85;;;;;;;37.16;14.08;100975.91;5116307;27;20092;-60
2021/06/18 04:22:30;;;;;;;5.10;2.80;;;;;;;37.81;13.34;100986.59;5116644;27;20054;-62
2021/06/18 04:24:55;;;;;;;3.45;2.40;;;;;;;38.28;13.11;100936.25;5116460;27;20031;-61
2021/06/18 04:27:21;;;;;;;3.47;2.05;;;;;;;38.97;12.72;100975.75;5116006;27;20106;-61
2021/06/18 04:29:46;;;;;;;2.30;2.10;;;;;;;39.41;12.14;100979.69;5113700;27;20057;-61
2021/06/18 04:32:12;;;;;;;3.17;2.20;;;;;;;40.09;11.44;100973.53;5112887;28;20027;-57
2021/06/18 04:34:37;;;;;;;3.22;2.80;;;;;;;40.73;11.14;100982.69;5111693;28;20035;-60
2021/06/18 04:37:03;;;;;;;5.43;2.92;;;;;;;40.86;10.67;100980.28;5112659;28;20403;-61
2021/06/18 04:39:28;;;;;;;4.82;2.15;;;;;;;40.90;10.87;100930.81;5112622;28;20039;-59
2021/06/18 04:41:54;;;;;;;6.40;2.60;;;;;;;41.74;10.31;100979.81;5112710;28;20032;-60
2021/06/18 04:44:21;;;;;;;3.97;2.42;;;;;;;41.80;10.21;100890.59;5112513;28;20483;-60
2021/06/18 04:46:47;;;;;;;2.30;2.10;;;;;;;42.67;9.36;100987.69;5112412;28;20070;-60
2021/06/18 04:49:13;;;;;;;5.25;2.40;;;;;;;42.95;9.28;100988.53;5112901;28;20118;-62
2021/06/18 04:51:39;;;;;;;3.80;2.40;;;;;;;43.41;9.32;101000.72;5112765;28;20391;-59
2021/06/18 04:54:04;;;;;;;4.22;2.40;;;;;;;43.74;9.22;101008.13;5112542;28;20676;-59
2021/06/18 04:56:30;;;;;;;3.53;2.22;;;;;;;43.88;8.73;100988.28;5112632;28;20039;-60
2021/06/18 04:58:58;;;;;;;2.08;1.88;;;;;;;44.22;8.24;101000.94;5112296;28;20147;-61
2021/06/18 05:01:24;;;;;;;3.22;1.80;;;;;;;44.27;8.52;100974.56;5112431;28;20093;-61
2021/06/18 05:03:49;;;;;;;3.42;1.88;;;;;;;44.21;7.98;100958.94;5112871;28;20431;-59
2021/06/18 05:06:14;;;;;;;2.15;1.95;;;;;;;44.79;8.00;100999.34;5111901;28;20087;-60
2021/06/18 05:08:40;;;;;;;1.83;1.70;;;;;;;45.06;7.68;101000.22;5112539;28;20046;-61
2021/06/18 05:11:05;;;;;;;2.10;1.30;;;;;;;45.13;7.42;100991.25;5112514;28;20051;-61
2021/06/18 05:13:31;;;;;;;3.03;1.30;;;;;;;45.57;7.02;100996.91;5112316;28;20042;-62
2021/06/18 05:15:58;;;;;;;2.85;1.65;;;;;;;46.12;6.67;100984.00;5111962;28;20059;-61
2021/06/18 05:18:23;;;;;;;3.15;1.85;;;;;;;46.51;6.46;100994.50;5111910;28;20451;-61
2021/06/18 05:20:49;;;;;;;3.63;2.00;;;;;;;46.41;6.25;100959.72;5112305;28;20554;-64
2021/06/18 05:23:15;;;;;;;4.03;1.85;;;;;;;47.01;6.60;100988.03;5112115;28;20047;-63
2021/06/18 05:25:40;;;;;;;4.50;2.00;;;;;;;47.53;6.33;100991.63;5112015;28;20035;-60
2021/06/18 05:28:06;;;;;;;6.60;2.47;;;;;;;48.02;5.81;100992.09;5111081;28;20038;-60
2021/06/18 05:30:31;;;;;;;3.25;1.90;;;;;;;48.54;5.25;100982.94;5111959;28;20114;-60
2021/06/18 05:32:57;;;;;;;2.08;1.90;;;;;;;49.01;5.33;100988.47;5111578;28;20032;-59
2021/06/18 05:35:23;;;;;;;3.58;1.80;;;;;;;49.03;5.03;100978.34;5112071;28;20043;-60
2021/06/18 05:37:52;;;;;;;2.72;1.92;;;;;;;49.23;5.13;101005.00;5112200;28;20039;-60
2021/06/18 05:40:18;;;;;;;4.05;1.90;;;;;;;49.59;5.09;100990.16;5111260;28;20031;-60
2021/06/18 05:42:43;;;;;;;2.47;1.98;;;;;;;49.98;5.05;100993.25;5111230;28;20435;-61
2021/06/18 05:45:10;;;;;;;2.28;1.45;;;;;;;50.30;4.52;100990.41;5111753;27;20035;-61
2021/06/18 05:47:35;;;;;;;2.38;1.55;;;;;;;50.58;4.50;100980.09;5112185;28;20198;-60
2021/06/18 05:50:01;;;;;;;2.28;1.50;;;;;;;51.00;4.52;100976.56;5110333;28;20119;-61
2021/06/18 05:52:27;;;;;;;4.40;1.77;;;;;;;51.33;4.06;100980.13;5111128;28;20067;-61
2021/06/18 05:54:52;;;;;;;3.55;1.75;;;;;;;51.46;4.21;100973.06;5111189;28;20380;-62
2021/06/18 05:57:18;;;;;;;3.65;1.90;;;;;;;51.81;4.21;100965.56;5111902;27;20043;-59
2021/06/18 05:59:43;;;;;;;2.05;1.80;;;;;;;52.08;3.29;100979.91;5111670;28;20036;-61
2021/06/18 06:02:08;;;;;;;2.70;1.75;;;;;;;52.24;3.38;100982.59;5110851;28;20035;-60
2021/06/18 06:04:34;;;;;;;2.90;1.48;;;;;;;51.84;3.73;100984.78;5110782;28;20042;-59
2021/06/18 06:07:00;;;;;;;3.00;1.70;;;;;;;52.02;3.93;100987.16;5111358;28;20043;-61
2021/06/18 06:09:26;;;;;;;5.40;1.90;;;;;;;52.33;3.15;100982.31;5111046;28;20028;-61
2021/06/18 06:11:51;;;;;;;2.10;1.90;;;;;;;52.45;3.01;100975.59;5109850;28;20547;-61
2021/06/18 06:14:18;;;;;;;2.30;1.83;;;;;;;52.93;3.01;100977.91;5110884;28;20043;-61
2021/06/18 06:16:45;;;;;;;2.53;1.90;;;;;;;53.46;2.68;100988.38;5100772;28;20044;-61
2021/06/18 06:19:11;;;;;;;2.85;1.80;;;;;;;53.55;2.89;100944.34;5099994;28;20071;-62
2021/06/18 06:21:36;;;;;;;3.05;1.85;;;;;;;54.09;2.66;100990.66;5094371;28;20067;-61
2021/06/18 06:24:02;;;;;;;6.47;1.88;;;;;;;54.26;2.16;100985.47;5091758;28;20086;-61
2021/06/18 06:26:27;;;;;;;3.58;1.73;;;;;;;54.63;2.45;100975.91;5098624;28;20043;-60
2021/06/18 06:28:53;;;;;;;2.33;2.10;;;;;;;55.14;1.86;100965.47;5097932;28;20028;-62
2021/06/18 06:31:18;;;;;;;3.22;1.80;;;;;;;55.39;1.86;100967.63;5097447;28;20104;-60
2021/06/18 06:33:44;;;;;;;3.95;1.83;;;;;;;55.43;1.58;100942.59;5099777;28;20134;-62
2021/06/18 06:36:10;;;;;;;2.60;2.28;;;;;;;55.68;1.77;100967.66;5104870;28;20167;-62
2021/06/18 06:38:38;;;;;;;4.53;2.42;;;;;;;55.76;1.41;100986.56;5110153;28;20027;-61
2021/06/18 06:41:03;;;;;;;3.90;1.98;;;;;;;55.52;1.48;100970.91;5110168;28;20043;-62
2021/06/18 06:43:29;;;;;;;2.47;2.28;;;;;;;55.34;1.93;100979.47;5110032;28;20280;-60
2021/06/18 06:45:54;;;;;;;2.55;2.17;;;;;;;55.19;1.48;100975.75;5110451;28;20380;-61
2021/06/18 06:48:20;;;;;;;3.72;2.15;;;;;;;54.97;1.90;100969.09;5109568;28;20085;-60
2021/06/18 06:50:45;;;;;;;2.63;2.40;;;;;;;55.22;1.96;100975.75;5111060;28;20032;-60
2021/06/18 06:53:11;;;;;;;2.38;2.15;;;;;;;55.62;1.99;100954.94;5108518;28;20483;-61
2021/06/18 06:55:37;;;;;;;3.25;2.42;;;;;;;56.28;1.60;100961.50;5109935;28;20035;-60
2021/06/18 06:58:04;;;;;;;3.47;2.95;;;;;;;56.91;1.46;100973.22;5110147;28;20042;-63
2021/06/18 07:00:30;;;;;;;2.97;2.78;;;;;;;57.35;0.88;100955.75;5110280;28;20810;-62
2021/06/18 07:02:56;;;;;;;4.13;3.33;;;;;;;57.61;0.77;100953.53;5109797;28;20035;-61
2021/06/18 07:05:21;;;;;;;2.88;2.65;;;;;;;57.77;0.45;100965.34;5109883;28;20122;-60
2021/06/18 07:07:47;;;;;;;4.00;2.65;;;;;;;57.58;0.58;100945.72;5110390;28;20471;-62
2021/06/18 07:10:13;;;;;;;3.33;3.13;;;;;;;57.42;0.92;100983.69;5109950;28;20038;-62
2021/06/18 07:12:39;;;;;;;3.30;3.00;;;;;;;57.04;0.91;100975.66;5108382;28;20052;-65
2021/06/18 07:15:06;;;;;;;3.33;3.13;;;;;;;56.75;0.94;100972.91;5107317;28;20044;-61
2021/06/18 07:17:31;;;;;;;3.47;3.28;;;;;;;56.03;1.35;100957.44;5107980;28;20577;-61
2021/06/18 07:19:57;;;;;;;3.90;3.33;;;;;;;55.92;0.96;100953.72;5109217;28;20119;-61
2021/06/18 07:22:24;;;;;;;3.85;3.55;;;;;;;56.56;1.36;100975.00;5110162;28;20115;-61
2021/06/18 07:24:50;;;;;;;3.75;3.20;;;;;;;56.80;1.20;100972.47;5109244;28;20043;-62
2021/06/18 07:27:16;;;;;;;4.20;3.80;;;;;;;57.19;0.67;100962.84;5109635;28;20035;-61
2021/06/18 07:29:43;;;;;;;3.65;3.35;;;;;;;57.61;0.66;100967.94;5099905;28;20047;-61
2021/06/18 07:32:09;;;;;;;4.88;4.43;;;;;;;57.66;0.38;100953.09;5089816;28;20225;-61
2021/06/18 07:34:35;;;;;;;4.13;3.72;;;;;;;58.26;0.58;100955.03;5089564;28;20123;-61
2021/06/18 07:37:01;;;;;;;4.80;4.45;;;;;;;58.67;0.33;100942.59;5089557;28;20089;-61
2021/06/18 07:39:26;;;;;;;5.35;4.88;;;;;;;59.27;0.32;100964.50;5089061;28;20203;-60
2021/06/18 07:41:52;;;;;;;5.20;4.70;;;;;;;59.01;0.19;100964.03;5089732;28;20425;-59
2021/06/18 07:44:18;;;;;;;6.80;5.07;;;;;;;58.71;0.30;100937.59;5089786;28;20032;-61
2021/06/18 07:46:43;;;;;;;4.28;4.05;;;;;;;58.76;0.20;100962.28;5088937;28;20047;-61
2021/06/18 07:49:09;;;;;;;5.45;5.05;;;;;;;58.75;0.13;100928.91;5088770;28;20040;-61
2021/06/18 07:51:35;;;;;;;5.03;4.68;;;;;;;59.12;0.20;100947.38;5087795;28;20085;-61
2021/06/18 07:54:00;;;;;;;6.22;5.80;;;;;;;59.29;0.43;100944.66;5089660;28;20490;-63
2021/06/18 07:56:29;;;;;;;6.93;6.35;;;;;;;59.29;0.34;100956.19;5085391;28;20399;-62
2021/06/18 07:58:55;;;;;;;7.05;5.95;;;;;;;59.11;0.38;100945.75;5088485;28;20051;-60
2021/06/18 08:01:21;;;;;;;6.60;6.20;;;;;;;59.04;0.02;100948.72;5089684;28;20476;-62
2021/06/18 08:03:47;;;;;;;6.22;5.82;;;;;;;58.82;0.24;100916.47;5089843;28;20043;-63
2021/06/18 08:06:13;;;;;;;6.47;5.78;;;;;;;58.74;0.14;100947.47;5091392;28;20036;-59
2021/06/18 08:08:38;;;;;;;6.28;5.72;;;;;;;57.90;0.05;100922.44;5092624;28;20039;-61
2021/06/18 08:11:04;;;;;;;5.68;5.28;;;;;;;56.83;0.81;100942.88;5092822;28;20060;-59
2021/06/18 08:13:30;;;;;;;5.95;5.32;;;;;;;56.02;1.08;100944.31;5091426;28;20083;-63
2021/06/18 08:15:55;;;;;;;4.43;4.03;;;;;;;55.21;1.16;100941.72;5092775;28;20032;-59
2021/06/18 08:18:21;;;;;;;4.45;4.15;;;;;;;54.32;1.48;100944.56;5104600;28;20089;-60
2021/06/18 08:20:47;;;;;;;5.22;3.55;;;;;;;52.74;2.29;100941.72;5113193;28;20028;-59
2021/06/18 08:23:13;;;;;;;3.15;2.88;;;;;;;50.89;3.09;100898.53;5113086;28;20123;-60
2021/06/18 08:25:40;;;;;;;3.70;2.17;;;;;;;48.19;4.45;100937.13;5112528;28;20217;-60
2021/06/18 08:28:06;;;;;;;5.05;2.00;;;;;;;45.14;6.01;100934.41;5112807;28;20031;-60
2021/06/18 08:30:31;;;;;;;5.88;1.65;;;;;;;42.46;7.40;100920.56;5112890;28;20042;-59
2021/06/18 08:32:57;;;;;;;2.92;1.70;;;;;;;40.04;8.72;100887.53;5112773;28;20118;-60
2021/06/18 08:35:23;;;;;;;1.92;1.63;;;;;;;38.71;10.27;100922.69;5112832;27;20058;-58
2021/06/18 08:37:50;;;;;;;4.30;1.65;;;;;;;36.98;11.27;100866.44;5112963;28;20040;-60
2021/06/18 08:40:16;;;;;;;6.65;1.75;;;;;;;36.26;11.94;100936.69;5112884;28;20487;-60
2021/06/18 08:42:42;;;;;;;3.35;1.67;;;;;;;35.33;12.97;100935.97;5112832;28;20534;-61
2021/06/18 08:45:08;;;;;;;3.28;1.48;;;;;;;34.15;13.68;100863.91;5112811;28;20110;-62
2021/06/18 08:47:35;;;;;;;2.35;1.45;;;;;;;33.86;14.56;100937.06;5111616;28;20371;-60
2021/06/18 08:50:00;;;;;;;2.85;1.40;;;;;;;33.35;14.95;100942.53;5112119;28;20027;-60
2021/06/18 08:52:27;;;;;;;2.22;1.50;;;;;;;32.72;15.25;100934.09;5112255;28;20038;-61
2021/06/18 08:54:54;;;;;;;2.42;1.65;;;;;;;32.16;15.87;100918.72;5113125;28;20035;-55
2021/06/18 08:57:21;;;;;;;2.92;1.70;;;;;;;31.80;16.71;100926.19;5112227;28;20040;-60
2021/06/18 08:59:48;;;;;;;2.65;1.42;;;;;;;31.60;17.11;100938.41;5112663;28;20115;-60
2021/06/18 09:02:15;;;;;;;3.75;1.40;;;;;;;31.48;17.16;100943.06;5112773;28;20042;-59
2021/06/18 09:04:59;;;;;;;5.07;1.92;;;;;;;31.34;17.05;100934.97;5111886;28;20066;-60
2021/06/18 09:07:24;;;;;;;2.17;1.70;;;;;;;31.08;17.60;100937.00;5112043;28;20042;-59
2021/06/18 09:09:50;;;;;;;2.53;1.65;;;;;;;30.95;17.97;100928.91;5112581;27;20035;-61
2021/06/18 09:12:15;;;;;;;3.20;1.40;;;;;;;30.77;17.76;100929.78;5112179;28;20047;-59
2021/06/18 09:14:41;;;;;;;5.00;1.60;;;;;;;30.52;17.98;100930.69;5111374;27;20074;-60
2021/06/18 09:17:18;;;;;;;3.45;2.08;;;;;;;30.35;18.62;100927.66;5111775;28;20124;-60
2021/06/18 09:19:49;;;;;;;3.50;1.52;;;;;;;29.93;19.21;100868.41;5111932;28;20176;-60
2021/06/18 09:22:17;;;;;;;4.00;1.60;;;;;;;30.22;18.96;100918.47;5111499;28;20055;-60
2021/06/18 09:25:08;;;;;;;3.20;1.55;;;;;;;30.28;19.08;100919.47;5111046;27;20031;-59
2021/06/18 09:27:39;;;;;;;2.88;1.60;;;;;;;30.22;19.32;100915.69;5112160;28;20043;-59
2021/06/18 09:30:19;;;;;;;6.00;1.80;;;;;;;30.28;19.09;100916.72;5112002;28;20058;-59
2021/06/18 09:33:12;;;;;;;4.32;1.77;;;;;;;30.20;18.55;100909.56;5111247;28;20065;-61
2021/06/18 09:36:08;;;;;;;3.67;1.63;;;;;;;29.84;18.46;100863.38;5111638;28;20063;-60
2021/06/18 09:38:41;;;;;;;4.35;1.70;;;;;;;29.84;19.05;100905.63;5110375;28;20059;-60
2021/06/18 09:41:27;;;;;;;3.47;1.60;;;;;;;29.67;19.38;100907.28;5111028;28;20031;-58
2021/06/18 09:43:57;;;;;;;3.40;1.55;;;;;;;29.69;19.66;100907.91;5110076;28;20062;-56
2021/06/18 09:46:40;;;;;;;2.72;1.75;;;;;;;29.68;19.63;100907.03;5110534;27;20452;-56
2021/06/18 09:49:05;;;;;;;5.45;1.92;;;;;;;29.42;19.63;100895.16;5111529;28;20387;-59
2021/06/18 09:51:31;;;;;;;2.13;1.55;;;;;;;29.32;19.98;100881.81;5111083;27;20035;-60
2021/06/18 09:53:56;;;;;;;5.05;1.80;;;;;;;29.35;20.00;100886.88;5110004;28;20050;-59
2021/06/18 09:56:22;;;;;;;5.25;1.60;;;;;;;29.41;20.27;100884.31;5110037;28;20063;-58
2021/06/18 09:58:48;;;;;;;3.40;1.60;;;;;;;29.42;19.98;100897.03;5111321;28;20031;-61
2021/06/18 10:01:25;;;;;;;5.93;2.00;;;;;;;29.46;20.24;100898.31;5110960;28;20069;-60
2021/06/18 10:04:13;;;;;;;2.58;1.55;;;;;;;29.45;19.69;100885.59;5111182;28;20083;-60
2021/06/18 10:06:41;;;;;;;3.75;1.60;;;;;;;29.37;19.97;100887.50;5111241;28;20039;-60
2021/06/18 10:09:08;;;;;;;3.15;1.70;;;;;;;29.28;19.87;100880.56;5111401;28;20039;-60
2021/06/18 10:11:36;;;;;;;3.22;1.80;;;;;;;29.29;20.03;100885.03;5110346;28;20052;-58
2021/06/18 10:14:02;;;;;;;4.07;1.60;;;;;;;29.02;20.33;100824.56;5110979;28;20048;-61
2021/06/18 10:16:28;;;;;;;4.22;1.70;;;;;;;29.41;20.12;100868.63;5111508;28;20074;-59
2021/06/18 10:18:57;;;;;;;5.10;1.55;;;;;;;29.48;19.94;100868.59;5111004;28;20066;-61
2021/06/18 10:21:23;;;;;;;5.45;2.10;;;;;;;29.48;19.83;100874.09;5110716;28;20038;-58
2021/06/18 10:23:54;;;;;;;5.82;1.92;;;;;;;29.17;20.63;100820.63;5110580;27;20443;-59
2021/06/18 10:26:21;;;;;;;2.75;1.67;;;;;;;28.77;20.75;100747.28;5110893;28;20092;-61
2021/06/18 10:28:55;;;;;;;2.63;1.92;;;;;;;29.48;20.68;100883.19;5108663;28;20093;-60
2021/06/18 10:31:31;;;;;;;2.28;1.83;;;;;;;29.40;20.51;100866.06;5110642;28;20058;-59
2021/06/18 10:34:11;;;;;;;4.53;1.80;;;;;;;29.43;20.32;100866.50;5110531;28;20126;-58
2021/06/18 10:36:37;;;;;;;4.60;1.98;;;;;;;29.39;20.57;100853.31;5110620;28;20074;-59
2021/06/18 10:39:13;;;;;;;4.90;2.08;;;;;;;29.46;20.47;100859.69;5110408;28;20055;-60
2021/06/18 10:41:49;;;;;;;4.32;1.98;;;;;;;29.49;20.08;100862.81;5110494;28;20543;-60
2021/06/18 10:44:49;;;;;;;3.53;1.85;;;;;;;29.50;19.97;100847.13;5110405;28;20036;-60
2021/06/18 10:47:24;;;;;;;4.15;2.00;;;;;;;29.50;20.16;100858.16;5097606;28;20123;-60
2021/06/18 10:49:52;;;;;;;1.88;1.70;;;;;;;29.43;20.39;100860.16;5110591;28;20044;-60
2021/06/18 10:52:23;;;;;;;4.03;1.70;;;;;;;29.05;20.15;100803.94;5109649;28;20035;-59
2021/06/18 10:54:55;;;;;;;3.78;1.50;;;;;;;29.37;20.46;100857.16;5108774;28;20031;-60
2021/06/18 10:57:25;;;;;;;3.45;1.73;;;;;;;29.39;20.63;100862.47;5110797;28;20035;-59
2021/06/18 11:00:10;;;;;;;5.95;2.05;;;;;;;29.07;20.42;100802.66;5109971;28;20043;-60
2021/06/18 11:02:40;;;;;;;3.13;1.63;;;;;;;29.30;21.05;100847.25;5110129;28;20036;-59
2021/06/18 11:05:28;;;;;;;1.65;1.50;;;;;;;29.23;21.13;100839.03;5110415;28;20495;-59
2021/06/18 11:08:20;;;;;;;2.42;1.90;;;;;;;29.40;20.59;100849.50;5106579;28;20036;-60
2021/06/18 11:10:46;;;;;;;2.45;1.88;;;;;;;29.33;20.80;100839.38;5109787;28;20050;-58
2021/06/18 11:13:12;;;;;;;5.25;2.10;;;;;;;29.25;20.75;100814.84;5110421;28;20035;-59
2021/06/18 11:15:42;;;;;;;4.65;2.10;;;;;;;29.39;21.31;100843.16;5110571;28;20047;-60
2021/06/18 11:18:14;;;;;;;4.10;1.80;;;;;;;29.12;21.40;100776.31;5109520;28;20139;-60
2021/06/18 11:20:39;;;;;;;5.72;2.00;;;;;;;29.43;21.03;100821.53;5109884;28;20164;-59
2021/06/18 11:23:14;;;;;;;4.88;2.05;;;;;;;29.45;21.00;100824.91;5110563;28;20270;-60
2021/06/18 11:25:39;;;;;;;3.20;1.90;;;;;;;29.40;20.68;100819.16;5110267;28;20058;-60
2021/06/18 11:28:20;;;;;;;7.25;2.10;;;;;;;29.35;21.02;100820.69;5109707;28;20471;-61
2021/06/18 11:30:59;;;;;;;3.20;2.00;;;;;;;29.25;21.40;100820.34;5109858;28;20036;-61